createdAt,value
2019-02-04T00:01:18.002Z,-0.40
2019-02-04T00:03:47.406Z,-0.50
2019-02-04T00:06:16.598Z,-0.40
2019-02-04T00:08:46.071Z,-0.40
2019-02-04T00:11:15.250Z,-0.50
2019-02-04T00:13:44.334Z,-0.50
2019-02-04T00:16:13.471Z,-0.50
2019-02-04T00:18:43.042Z,-0.50
2019-02-04T00:21:12.500Z,-0.50
2019-02-04T00:23:41.972Z,-0.50
2019-02-04T00:26:11.078Z,-0.60
2019-02-04T00:28:40.159Z,-0.60
2019-02-04T00:31:09.254Z,-0.60
2019-02-04T00:33:38.720Z,-0.60
2019-02-04T00:36:07.848Z,-0.60
2019-02-04T00:38:39.377Z,-0.70
2019-02-04T00:41:08.420Z,-0.70
2019-02-04T00:43:37.810Z,-0.70
2019-02-04T00:46:07.204Z,-0.70
2019-02-04T00:48:36.843Z,-0.70
2019-02-04T00:51:06.973Z,-0.70
2019-02-04T00:53:36.139Z,-0.70
2019-02-04T00:56:05.592Z,-0.70
2019-02-04T00:58:35.821Z,-0.60
2019-02-04T01:01:05.765Z,-0.60
2019-02-04T01:03:35.293Z,-0.60
2019-02-04T01:06:07.738Z,-0.50
2019-02-04T01:08:40.607Z,-0.50
2019-02-04T01:11:10.039Z,-0.50
2019-02-04T01:13:39.141Z,-0.50
2019-02-04T01:16:08.217Z,-0.40
2019-02-04T01:18:38.111Z,-0.40
2019-02-04T01:21:07.423Z,-0.50
2019-02-04T01:23:36.675Z,-0.40
2019-02-04T01:26:05.731Z,-0.40
2019-02-04T01:28:35.099Z,-0.40
2019-02-04T01:31:04.950Z,-0.40
2019-02-04T01:33:34.556Z,-0.50
2019-02-04T01:36:05.092Z,-0.50
2019-02-04T01:38:35.020Z,-0.50
2019-02-04T01:41:04.232Z,-0.50
2019-02-04T01:43:33.398Z,-0.60
2019-02-04T01:46:02.513Z,-0.60
2019-02-04T01:48:31.990Z,-0.60
2019-02-04T01:51:01.591Z,-0.70
2019-02-04T01:53:30.695Z,-0.70
2019-02-04T01:55:59.770Z,-0.70
2019-02-04T01:58:28.858Z,-0.60
2019-02-04T02:00:58.720Z,-0.70
2019-02-04T02:03:28.947Z,-0.70
2019-02-04T02:05:58.421Z,-0.70
2019-02-04T02:08:27.877Z,-0.70
2019-02-04T02:11:00.615Z,-0.70
2019-02-04T02:13:29.711Z,-0.70
2019-02-04T02:15:58.847Z,-0.70
2019-02-04T02:18:27.915Z,-0.70
2019-02-04T02:20:57.155Z,-0.70
2019-02-04T02:23:26.968Z,-0.70
2019-02-04T02:25:56.196Z,-0.70
2019-02-04T02:28:25.815Z,-0.70
2019-02-04T02:30:54.974Z,-0.80
2019-02-04T02:33:24.031Z,-0.80
2019-02-04T02:35:55.907Z,-0.90
2019-02-04T02:38:25.810Z,-0.90
2019-02-04T02:40:54.893Z,-0.90
2019-02-04T02:43:24.058Z,-0.90
2019-02-04T02:45:53.172Z,-1.00
2019-02-04T02:48:22.286Z,-0.90
2019-02-04T02:50:51.846Z,-1.00
2019-02-04T02:53:21.274Z,-0.90
2019-02-04T02:55:50.383Z,-0.90
2019-02-04T02:58:20.216Z,-1.00
2019-02-04T03:00:49.564Z,-1.00
2019-02-04T03:03:19.700Z,-1.00
2019-02-04T03:05:48.879Z,-1.10
2019-02-04T03:08:18.156Z,-1.00
2019-02-04T03:10:47.380Z,-1.00
2019-02-04T03:13:16.788Z,-1.10
2019-02-04T03:15:45.956Z,-1.10
2019-02-04T03:18:15.059Z,-1.10
2019-02-04T03:20:44.241Z,-1.10
2019-02-04T03:23:13.710Z,-1.10
2019-02-04T03:25:45.226Z,-1.00
2019-02-04T03:28:14.723Z,-1.00
2019-02-04T03:30:44.260Z,-1.00
2019-02-04T03:33:13.472Z,-0.90
2019-02-04T03:35:44.821Z,-0.90
2019-02-04T03:38:13.924Z,-0.90
2019-02-04T03:40:43.728Z,-0.90
2019-02-04T03:43:18.563Z,-0.80
2019-02-04T03:45:47.653Z,-0.70
2019-02-04T03:48:17.398Z,-0.70
2019-02-04T03:50:48.351Z,-0.70
2019-02-04T03:53:17.579Z,-0.70
2019-02-04T03:55:46.980Z,-0.80
2019-02-04T03:58:16.062Z,-0.80
2019-02-04T04:00:45.811Z,-0.80
2019-02-04T04:03:15.091Z,-0.90
2019-02-04T04:05:44.470Z,-0.80
2019-02-04T04:08:13.906Z,-0.80
2019-02-04T04:10:44.214Z,-0.80
2019-02-04T04:13:15.499Z,-0.80
2019-02-04T04:15:45.315Z,-0.80
2019-02-04T04:18:16.280Z,-0.90
2019-02-04T04:20:45.565Z,-0.90
2019-02-04T04:23:14.647Z,-0.90
2019-02-04T04:25:44.055Z,-0.90
2019-02-04T04:28:13.719Z,-0.80
2019-02-04T04:30:43.192Z,-0.80
2019-02-04T04:33:12.516Z,-0.80
2019-02-04T04:35:41.917Z,-0.80
2019-02-04T04:38:12.107Z,-0.80
2019-02-04T04:40:43.903Z,-0.80
2019-02-04T04:43:15.492Z,-0.70
2019-02-04T04:45:44.750Z,-0.60
2019-02-04T04:48:26.041Z,-0.60
2019-02-04T04:50:48.195Z,-0.50
2019-02-04T04:53:17.413Z,-0.50
2019-02-04T04:55:46.903Z,-0.40
2019-02-04T04:58:16.033Z,-0.40
2019-02-04T05:00:45.086Z,-0.40
2019-02-04T05:03:14.193Z,-0.40
2019-02-04T05:05:43.484Z,-0.50
2019-02-04T05:08:12.585Z,-0.50
2019-02-04T05:10:42.187Z,-0.50
2019-02-04T05:13:11.287Z,-0.40
2019-02-04T05:15:40.330Z,-0.30
2019-02-04T05:18:09.397Z,-0.30
2019-02-04T05:20:38.707Z,-0.20
2019-02-04T05:23:08.127Z,-0.20
2019-02-04T05:25:37.553Z,-0.20
2019-02-04T05:28:06.672Z,-0.10
2019-02-04T05:30:35.821Z,-0.10
2019-02-04T05:33:04.955Z,-0.10
2019-02-04T05:35:34.117Z,-0.10
2019-02-04T05:38:03.679Z,-0.20
2019-02-04T05:40:32.951Z,-0.20
2019-02-04T05:43:02.078Z,-0.30
2019-02-04T05:45:34.116Z,-0.30
2019-02-04T05:48:03.345Z,-0.40
2019-02-04T05:50:33.182Z,-0.50
2019-02-04T05:53:02.776Z,-0.60
2019-02-04T05:55:31.925Z,-0.80
2019-02-04T05:58:01.887Z,-0.90
2019-02-04T06:00:38.586Z,-1.00
2019-02-04T06:03:08.238Z,-1.00
2019-02-04T06:05:39.899Z,-1.10
2019-02-04T06:08:09.024Z,-1.10
2019-02-04T06:10:38.186Z,-1.10
2019-02-04T06:13:07.425Z,-1.10
2019-02-04T06:15:38.457Z,-1.10
2019-02-04T06:18:08.969Z,-1.10
2019-02-04T06:20:38.910Z,-1.20
2019-02-04T06:23:08.052Z,-1.10
2019-02-04T06:25:37.469Z,-1.10
2019-02-04T06:28:07.482Z,-1.10
2019-02-04T06:30:36.570Z,-1.00
2019-02-04T06:33:06.141Z,-1.00
2019-02-04T06:35:35.405Z,-1.00
2019-02-04T06:38:07.774Z,-0.90
2019-02-04T06:40:36.874Z,-0.90
2019-02-04T06:43:06.434Z,-0.90
2019-02-04T06:45:35.605Z,-1.00
2019-02-04T06:48:06.180Z,-1.00
2019-02-04T06:50:35.242Z,-1.00
2019-02-04T06:53:05.096Z,-1.00
2019-02-04T06:55:34.341Z,-1.00
2019-02-04T06:58:04.326Z,-1.00
2019-02-04T07:00:33.443Z,-1.00
2019-02-04T07:03:04.356Z,-1.00
2019-02-04T07:05:43.540Z,-1.00
2019-02-04T07:08:04.628Z,-1.00
2019-02-04T07:10:34.136Z,-0.90
2019-02-04T07:13:03.833Z,-0.90
2019-02-04T07:15:33.877Z,-0.90
2019-02-04T07:18:03.027Z,-0.90
2019-02-04T07:20:32.142Z,-0.80
2019-02-04T07:23:01.227Z,-0.80
2019-02-04T07:25:30.323Z,-0.70
2019-02-04T07:27:59.391Z,-0.70
2019-02-04T07:30:28.628Z,-0.70
2019-02-04T07:32:57.698Z,-0.60
2019-02-04T07:35:29.695Z,-0.50
2019-02-04T07:37:59.647Z,-0.50
2019-02-04T07:40:30.575Z,-0.50
2019-02-04T07:42:59.838Z,-0.50
2019-02-04T07:45:29.482Z,-0.40
2019-02-04T07:47:58.572Z,-0.40
2019-02-04T07:50:27.754Z,-0.30
2019-02-04T07:52:56.903Z,-0.30
2019-02-04T07:55:27.087Z,-0.30
2019-02-04T07:57:57.358Z,-0.20
2019-02-04T08:00:30.308Z,-0.20
2019-02-04T08:02:59.351Z,-0.20
2019-02-04T08:05:29.476Z,-0.10
2019-02-04T08:08:00.948Z,-0.10
2019-02-04T08:10:30.063Z,-0.10
2019-02-04T08:13:02.104Z,-0.10
2019-02-04T08:15:34.163Z,0.00
2019-02-04T08:18:03.324Z,-0.10
2019-02-04T08:20:32.422Z,0.00
2019-02-04T08:23:02.616Z,0.10
2019-02-04T08:25:31.730Z,0.10
2019-02-04T08:28:01.391Z,0.30
2019-02-04T08:30:37.888Z,0.30
2019-02-04T08:33:06.127Z,0.50
2019-02-04T08:35:35.375Z,0.50
2019-02-04T08:38:05.048Z,0.60
2019-02-04T08:40:35.357Z,0.70
2019-02-04T08:43:05.188Z,0.80
2019-02-04T08:45:35.328Z,0.90
2019-02-04T08:48:17.896Z,1.00
2019-02-04T08:50:47.200Z,1.10
2019-02-04T08:53:16.516Z,1.10
2019-02-04T08:55:52.048Z,1.20
2019-02-04T08:58:24.289Z,1.20
2019-02-04T09:00:55.196Z,1.30
